sensor_id;sensor_type;location;lat;lon;timestamp;temperature;humidity
6556;DHT22;3311;48.32423000;14.29074500;2023-02-28T00:01:32;8.50;39.50
6556;DHT22;3311;48.32423000;14.29074500;2023-02-28T00:04:00;8.60;39.50
6556;DHT22;3311;48.32423000;14.29074500;2023-02-28T00:06:27;8.60;39.10
6556;DHT22;3311;48.32423000;14.29074500;2023-02-28T00:08:54;8.50;38.90
6556;DHT22;3311;48.32423000;14.29074500;2023-02-28T00:11:22;8.50;39.00
6556;DHT22;3311;48.32423000;14.29074500;2023-02-28T00:13:49;8.50;39.10
6556;DHT22;3311;48.32423000;14.29074500;2023-02-28T00:16:19;8.50;39.10
6556;DHT22;3311;48.32423000;14.29074500;2023-02-28T00:18:46;8.60;39.20
6556;DHT22;3311;48.32423000;14.29074500;2023-02-28T00:21:15;8.60;39.20
6556;DHT22;3311;48.32423000;14.29074500;2023-02-28T00:23:42;8.70;39.10
6556;DHT22;3311;48.32423000;14.29074500;2023-02-28T00:26:10;8.60;38.70
6556;DHT22;3311;48.32423000;14.29074500;2023-02-28T00:28:37;8.70;38.70
6556;DHT22;3311;48.32423000;14.29074500;2023-02-28T00:31:04;8.70;38.80
6556;DHT22;3311;48.32423000;14.29074500;2023-02-28T00:33:33;8.60;38.80
6556;DHT22;3311;48.32423000;14.29074500;2023-02-28T00:36:05;8.50;39.10
6556;DHT22;3311;48.32423000;14.29074500;2023-02-28T00:38:32;8.40;39.10
6556;DHT22;3311;48.32423000;14.29074500;2023-02-28T00:41:00;8.50;39.30
6556;DHT22;3311;48.32423000;14.29074500;2023-02-28T00:43:32;8.50;39.10
6556;DHT22;3311;48.32423000;14.29074500;2023-02-28T00:45:59;8.40;39.00
6556;DHT22;3311;48.32423000;14.29074500;2023-02-28T00:48:27;8.40;39.20
6556;DHT22;3311;48.32423000;14.29074500;2023-02-28T00:50:56;8.40;39.40
6556;DHT22;3311;48.32423000;14.29074500;2023-02-28T00:53:23;8.40;39.20
6556;DHT22;3311;48.32423000;14.29074500;2023-02-28T00:55:51;8.40;39.30
6556;DHT22;3311;48.32423000;14.29074500;2023-02-28T00:58:18;8.50;39.10
6556;DHT22;3311;48.32423000;14.29074500;2023-02-28T01:00:46;8.40;39.00
6556;DHT22;3311;48.32423000;14.29074500;2023-02-28T01:03:15;8.40;39.20
6556;DHT22;3311;48.32423000;14.29074500;2023-02-28T01:05:44;8.50;39.20
6556;DHT22;3311;48.32423000;14.29074500;2023-02-28T01:08:12;8.30;39.10
6556;DHT22;3311;48.32423000;14.29074500;2023-02-28T01:10:40;8.40;39.20
6556;DHT22;3311;48.32423000;14.29074500;2023-02-28T01:13:07;8.30;39.20
6556;DHT22;3311;48.32423000;14.29074500;2023-02-28T01:15:35;8.20;39.20
6556;DHT22;3311;48.32423000;14.29074500;2023-02-28T01:18:05;8.20;39.40
6556;DHT22;3311;48.32423000;14.29074500;2023-02-28T01:20:32;8.30;39.30
6556;DHT22;3311;48.32423000;14.29074500;2023-02-28T01:22:59;8.20;39.50
6556;DHT22;3311;48.32423000;14.29074500;2023-02-28T01:25:28;8.30;39.20
6556;DHT22;3311;48.32423000;14.29074500;2023-02-28T01:27:56;8.30;39.20
6556;DHT22;3311;48.32423000;14.29074500;2023-02-28T01:30:23;8.40;39.20
6556;DHT22;3311;48.32423000;14.29074500;2023-02-28T01:32:50;8.50;39.30
6556;DHT22;3311;48.32423000;14.29074500;2023-02-28T01:35:19;8.50;38.90
6556;DHT22;3311;48.32423000;14.29074500;2023-02-28T01:37:47;8.60;38.90
6556;DHT22;3311;48.32423000;14.29074500;2023-02-28T01:40:14;8.50;39.00
6556;DHT22;3311;48.32423000;14.29074500;2023-02-28T01:42:43;8.50;38.90
6556;DHT22;3311;48.32423000;14.29074500;2023-02-28T01:45:22;8.50;38.70
6556;DHT22;3311;48.32423000;14.29074500;2023-02-28T01:47:55;8.40;38.80
6556;DHT22;3311;48.32423000;14.29074500;2023-02-28T01:50:26;8.30;38.90
6556;DHT22;3311;48.32423000;14.29074500;2023-02-28T01:52:56;8.40;39.00
6556;DHT22;3311;48.32423000;14.29074500;2023-02-28T01:55:26;8.30;39.00
6556;DHT22;3311;48.32423000;14.29074500;2023-02-28T01:57:57;8.40;39.00
6556;DHT22;3311;48.32423000;14.29074500;2023-02-28T02:00:26;8.40;39.10
6556;DHT22;3311;48.32423000;14.29074500;2023-02-28T02:02:56;8.50;39.10
6556;DHT22;3311;48.32423000;14.29074500;2023-02-28T02:05:26;8.40;38.50
6556;DHT22;3311;48.32423000;14.29074500;2023-02-28T02:07:56;8.40;38.80
6556;DHT22;3311;48.32423000;14.29074500;2023-02-28T02:10:29;8.40;38.60
6556;DHT22;3311;48.32423000;14.29074500;2023-02-28T02:13:13;8.30;38.70
6556;DHT22;3311;48.32423000;14.29074500;2023-02-28T02:15:53;8.40;38.90
6556;DHT22;3311;48.32423000;14.29074500;2023-02-28T02:18:30;8.30;38.70
6556;DHT22;3311;48.32423000;14.29074500;2023-02-28T02:27:18;8.30;38.20
6556;DHT22;3311;48.32423000;14.29074500;2023-02-28T02:30:12;8.30;38.30
6556;DHT22;3311;48.32423000;14.29074500;2023-02-28T02:33:10;8.30;38.30
6556;DHT22;3311;48.32423000;14.29074500;2023-02-28T02:35:49;8.20;38.30
6556;DHT22;3311;48.32423000;14.29074500;2023-02-28T02:38:29;8.20;38.40
6556;DHT22;3311;48.32423000;14.29074500;2023-02-28T02:41:04;8.30;39.00
6556;DHT22;3311;48.32423000;14.29074500;2023-02-28T02:43:38;8.20;38.30
6556;DHT22;3311;48.32423000;14.29074500;2023-02-28T02:46:13;8.20;38.30
6556;DHT22;3311;48.32423000;14.29074500;2023-02-28T02:48:42;8.30;38.30
6556;DHT22;3311;48.32423000;14.29074500;2023-02-28T02:51:15;8.30;38.40
6556;DHT22;3311;48.32423000;14.29074500;2023-02-28T02:53:47;8.50;38.20
6556;DHT22;3311;48.32423000;14.29074500;2023-02-28T02:56:19;8.50;37.80
6556;DHT22;3311;48.32423000;14.29074500;2023-02-28T02:58:49;8.20;37.60
6556;DHT22;3311;48.32423000;14.29074500;2023-02-28T03:01:20;8.20;38.20
6556;DHT22;3311;48.32423000;14.29074500;2023-02-28T03:03:55;8.20;38.10
6556;DHT22;3311;48.32423000;14.29074500;2023-02-28T03:06:25;8.40;37.90
6556;DHT22;3311;48.32423000;14.29074500;2023-02-28T03:08:53;8.20;37.80
6556;DHT22;3311;48.32423000;14.29074500;2023-02-28T03:11:20;8.40;38.10
6556;DHT22;3311;48.32423000;14.29074500;2023-02-28T03:14:10;8.50;37.90
6556;DHT22;3311;48.32423000;14.29074500;2023-02-28T03:16:56;8.30;37.70
6556;DHT22;3311;48.32423000;14.29074500;2023-02-28T03:19:37;8.30;37.70
6556;DHT22;3311;48.32423000;14.29074500;2023-02-28T03:22:36;8.20;38.00
6556;DHT22;3311;48.32423000;14.29074500;2023-02-28T03:25:09;8.30;37.80
6556;DHT22;3311;48.32423000;14.29074500;2023-02-28T03:27:44;8.30;38.10
6556;DHT22;3311;48.32423000;14.29074500;2023-02-28T03:30:19;8.30;37.60
6556;DHT22;3311;48.32423000;14.29074500;2023-02-28T03:32:54;8.30;37.60
6556;DHT22;3311;48.32423000;14.29074500;2023-02-28T03:35:25;8.40;37.60
6556;DHT22;3311;48.32423000;14.29074500;2023-02-28T03:38:02;8.40;37.30
6556;DHT22;3311;48.32423000;14.29074500;2023-02-28T03:40:33;8.50;37.60
6556;DHT22;3311;48.32423000;14.29074500;2023-02-28T03:43:09;8.70;37.40
6556;DHT22;3311;48.32423000;14.29074500;2023-02-28T03:45:39;8.60;37.10
6556;DHT22;3311;48.32423000;14.29074500;2023-02-28T03:48:13;8.50;37.20
6556;DHT22;3311;48.32423000;14.29074500;2023-02-28T03:50:43;8.40;37.30
6556;DHT22;3311;48.32423000;14.29074500;2023-02-28T03:53:18;8.40;37.30
6556;DHT22;3311;48.32423000;14.29074500;2023-02-28T03:55:49;8.40;37.10
6556;DHT22;3311;48.32423000;14.29074500;2023-02-28T03:58:24;8.20;37.10
6556;DHT22;3311;48.32423000;14.29074500;2023-02-28T04:00:59;8.30;37.40
6556;DHT22;3311;48.32423000;14.29074500;2023-02-28T04:03:34;8.20;37.30
6556;DHT22;3311;48.32423000;14.29074500;2023-02-28T04:06:02;8.10;37.20
6556;DHT22;3311;48.32423000;14.29074500;2023-02-28T04:08:31;8.10;37.40
6556;DHT22;3311;48.32423000;14.29074500;2023-02-28T04:11:02;8.10;37.40
6556;DHT22;3311;48.32423000;14.29074500;2023-02-28T04:13:31;8.20;37.40
6556;DHT22;3311;48.32423000;14.29074500;2023-02-28T04:15:59;8.30;37.40
6556;DHT22;3311;48.32423000;14.29074500;2023-02-28T04:18:26;8.00;36.90
6556;DHT22;3311;48.32423000;14.29074500;2023-02-28T04:20:53;8.00;37.30
6556;DHT22;3311;48.32423000;14.29074500;2023-02-28T04:23:20;8.00;37.30
6556;DHT22;3311;48.32423000;14.29074500;2023-02-28T04:25:49;8.10;37.30
6556;DHT22;3311;48.32423000;14.29074500;2023-02-28T04:28:17;8.10;37.10
6556;DHT22;3311;48.32423000;14.29074500;2023-02-28T04:30:44;8.20;37.20
6556;DHT22;3311;48.32423000;14.29074500;2023-02-28T04:33:11;8.10;37.10
6556;DHT22;3311;48.32423000;14.29074500;2023-02-28T04:35:38;8.20;37.10
6556;DHT22;3311;48.32423000;14.29074500;2023-02-28T04:38:06;8.30;37.00
6556;DHT22;3311;48.32423000;14.29074500;2023-02-28T04:40:33;8.30;36.80
6556;DHT22;3311;48.32423000;14.29074500;2023-02-28T04:43:02;8.20;36.70
6556;DHT22;3311;48.32423000;14.29074500;2023-02-28T04:45:29;8.20;36.70
6556;DHT22;3311;48.32423000;14.29074500;2023-02-28T04:47:59;8.30;36.80
6556;DHT22;3311;48.32423000;14.29074500;2023-02-28T04:50:26;8.10;36.40
6556;DHT22;3311;48.32423000;14.29074500;2023-02-28T04:52:53;8.20;36.90
6556;DHT22;3311;48.32423000;14.29074500;2023-02-28T04:55:20;8.50;36.70
6556;DHT22;3311;48.32423000;14.29074500;2023-02-28T04:57:48;8.30;36.60
6556;DHT22;3311;48.32423000;14.29074500;2023-02-28T05:00:17;8.00;36.30
6556;DHT22;3311;48.32423000;14.29074500;2023-02-28T05:02:44;8.20;37.00
6556;DHT22;3311;48.32423000;14.29074500;2023-02-28T05:05:12;8.20;36.60
6556;DHT22;3311;48.32423000;14.29074500;2023-02-28T05:07:43;8.10;36.90
6556;DHT22;3311;48.32423000;14.29074500;2023-02-28T05:10:11;8.20;36.70
6556;DHT22;3311;48.32423000;14.29074500;2023-02-28T05:12:38;8.30;36.70
6556;DHT22;3311;48.32423000;14.29074500;2023-02-28T05:15:07;8.20;36.50
6556;DHT22;3311;48.32423000;14.29074500;2023-02-28T05:17:37;8.40;36.60
6556;DHT22;3311;48.32423000;14.29074500;2023-02-28T05:20:05;8.40;36.30
6556;DHT22;3311;48.32423000;14.29074500;2023-02-28T05:22:34;8.40;36.10
6556;DHT22;3311;48.32423000;14.29074500;2023-02-28T05:25:02;8.20;36.20
6556;DHT22;3311;48.32423000;14.29074500;2023-02-28T05:27:30;8.20;36.30
6556;DHT22;3311;48.32423000;14.29074500;2023-02-28T05:29:57;8.20;36.20
6556;DHT22;3311;48.32423000;14.29074500;2023-02-28T05:32:24;8.10;36.40
6556;DHT22;3311;48.32423000;14.29074500;2023-02-28T05:34:53;8.20;36.50
6556;DHT22;3311;48.32423000;14.29074500;2023-02-28T05:37:20;8.30;36.50
6556;DHT22;3311;48.32423000;14.29074500;2023-02-28T05:39:48;8.30;36.40
6556;DHT22;3311;48.32423000;14.29074500;2023-02-28T05:42:15;8.20;36.10
6556;DHT22;3311;48.32423000;14.29074500;2023-02-28T05:44:42;8.20;36.30
6556;DHT22;3311;48.32423000;14.29074500;2023-02-28T05:47:10;8.20;36.30
6556;DHT22;3311;48.32423000;14.29074500;2023-02-28T05:49:41;8.00;36.30
6556;DHT22;3311;48.32423000;14.29074500;2023-02-28T05:52:10;8.10;36.60
6556;DHT22;3311;48.32423000;14.29074500;2023-02-28T05:54:37;8.40;36.40
6556;DHT22;3311;48.32423000;14.29074500;2023-02-28T05:57:05;8.40;36.30
6556;DHT22;3311;48.32423000;14.29074500;2023-02-28T05:59:32;8.40;36.20
6556;DHT22;3311;48.32423000;14.29074500;2023-02-28T06:02:00;8.60;36.00
6556;DHT22;3311;48.32423000;14.29074500;2023-02-28T06:04:27;8.30;35.50
6556;DHT22;3311;48.32423000;14.29074500;2023-02-28T06:06:54;8.30;36.00
6556;DHT22;3311;48.32423000;14.29074500;2023-02-28T06:09:24;8.30;36.10
6556;DHT22;3311;48.32423000;14.29074500;2023-02-28T06:11:52;8.20;35.90
6556;DHT22;3311;48.32423000;14.29074500;2023-02-28T06:14:20;8.20;36.10
6556;DHT22;3311;48.32423000;14.29074500;2023-02-28T06:16:48;8.20;36.20
6556;DHT22;3311;48.32423000;14.29074500;2023-02-28T06:19:15;8.50;36.30
6556;DHT22;3311;48.32423000;14.29074500;2023-02-28T06:21:43;8.70;36.00
6556;DHT22;3311;48.32423000;14.29074500;2023-02-28T06:24:11;9.00;35.60
6556;DHT22;3311;48.32423000;14.29074500;2023-02-28T06:26:39;9.10;35.20
6556;DHT22;3311;48.32423000;14.29074500;2023-02-28T06:29:07;9.30;34.80
6556;DHT22;3311;48.32423000;14.29074500;2023-02-28T06:31:34;9.30;34.50
6556;DHT22;3311;48.32423000;14.29074500;2023-02-28T06:34:02;9.30;34.50
6556;DHT22;3311;48.32423000;14.29074500;2023-02-28T06:36:32;9.50;34.80
6556;DHT22;3311;48.32423000;14.29074500;2023-02-28T06:38:59;9.50;34.40
6556;DHT22;3311;48.32423000;14.29074500;2023-02-28T06:41:27;9.70;34.30
6556;DHT22;3311;48.32423000;14.29074500;2023-02-28T06:43:55;9.90;34.10
6556;DHT22;3311;48.32423000;14.29074500;2023-02-28T06:46:23;9.90;33.80
6556;DHT22;3311;48.32423000;14.29074500;2023-02-28T06:48:50;10.00;32.90
6556;DHT22;3311;48.32423000;14.29074500;2023-02-28T06:51:19;10.00;32.80
6556;DHT22;3311;48.32423000;14.29074500;2023-02-28T06:53:47;10.20;32.80
6556;DHT22;3311;48.32423000;14.29074500;2023-02-28T06:56:16;10.10;32.40
6556;DHT22;3311;48.32423000;14.29074500;2023-02-28T06:58:46;10.20;32.50
6556;DHT22;3311;48.32423000;14.29074500;2023-02-28T07:01:15;10.30;32.50
6556;DHT22;3311;48.32423000;14.29074500;2023-02-28T07:03:43;10.50;32.40
6556;DHT22;3311;48.32423000;14.29074500;2023-02-28T07:06:10;10.50;32.10
6556;DHT22;3311;48.32423000;14.29074500;2023-02-28T07:08:37;10.50;32.00
6556;DHT22;3311;48.32423000;14.29074500;2023-02-28T07:11:06;10.60;32.20
6556;DHT22;3311;48.32423000;14.29074500;2023-02-28T07:13:33;10.60;32.00
6556;DHT22;3311;48.32423000;14.29074500;2023-02-28T07:16:02;10.70;32.00
6556;DHT22;3311;48.32423000;14.29074500;2023-02-28T07:18:31;10.80;32.10
6556;DHT22;3311;48.32423000;14.29074500;2023-02-28T07:21:02;11.00;32.00
6556;DHT22;3311;48.32423000;14.29074500;2023-02-28T07:23:29;11.10;31.70
6556;DHT22;3311;48.32423000;14.29074500;2023-02-28T07:25:57;11.10;31.50
6556;DHT22;3311;48.32423000;14.29074500;2023-02-28T07:28:24;11.10;31.60
6556;DHT22;3311;48.32423000;14.29074500;2023-02-28T07:30:51;11.20;31.80
6556;DHT22;3311;48.32423000;14.29074500;2023-02-28T07:33:19;11.30;31.80
6556;DHT22;3311;48.32423000;14.29074500;2023-02-28T07:35:47;11.30;31.60
6556;DHT22;3311;48.32423000;14.29074500;2023-02-28T07:38:14;11.30;31.70
6556;DHT22;3311;48.32423000;14.29074500;2023-02-28T07:40:42;11.40;31.70
6556;DHT22;3311;48.32423000;14.29074500;2023-02-28T07:43:09;11.40;31.50
6556;DHT22;3311;48.32423000;14.29074500;2023-02-28T07:45:36;11.50;31.70
6556;DHT22;3311;48.32423000;14.29074500;2023-02-28T07:48:04;11.60;31.70
6556;DHT22;3311;48.32423000;14.29074500;2023-02-28T07:50:31;11.70;31.30
6556;DHT22;3311;48.32423000;14.29074500;2023-02-28T07:52:59;11.70;31.40
6556;DHT22;3311;48.32423000;14.29074500;2023-02-28T07:55:27;11.80;31.60
6556;DHT22;3311;48.32423000;14.29074500;2023-02-28T07:57:54;11.80;31.30
6556;DHT22;3311;48.32423000;14.29074500;2023-02-28T08:00:22;11.80;31.30
6556;DHT22;3311;48.32423000;14.29074500;2023-02-28T08:02:49;11.90;31.50
6556;DHT22;3311;48.32423000;14.29074500;2023-02-28T08:05:17;11.80;31.20
6556;DHT22;3311;48.32423000;14.29074500;2023-02-28T08:07:44;11.70;31.30
6556;DHT22;3311;48.32423000;14.29074500;2023-02-28T08:10:15;11.70;31.40
6556;DHT22;3311;48.32423000;14.29074500;2023-02-28T08:12:42;11.70;31.50
6556;DHT22;3311;48.32423000;14.29074500;2023-02-28T08:15:10;11.80;31.60
6556;DHT22;3311;48.32423000;14.29074500;2023-02-28T08:17:37;11.80;31.40
6556;DHT22;3311;48.32423000;14.29074500;2023-02-28T08:20:05;11.70;31.30
6556;DHT22;3311;48.32423000;14.29074500;2023-02-28T08:22:34;11.60;31.30
6556;DHT22;3311;48.32423000;14.29074500;2023-02-28T08:25:01;11.70;31.80
6556;DHT22;3311;48.32423000;14.29074500;2023-02-28T08:27:30;11.80;31.80
6556;DHT22;3311;48.32423000;14.29074500;2023-02-28T08:29:57;11.80;31.60
6556;DHT22;3311;48.32423000;14.29074500;2023-02-28T08:32:24;11.80;31.50
6556;DHT22;3311;48.32423000;14.29074500;2023-02-28T08:34:51;11.70;31.20
6556;DHT22;3311;48.32423000;14.29074500;2023-02-28T08:37:18;11.70;31.60
6556;DHT22;3311;48.32423000;14.29074500;2023-02-28T08:39:46;11.70;31.60
6556;DHT22;3311;48.32423000;14.29074500;2023-02-28T08:42:13;11.60;31.40
6556;DHT22;3311;48.32423000;14.29074500;2023-02-28T08:44:41;11.60;31.80
6556;DHT22;3311;48.32423000;14.29074500;2023-02-28T08:47:09;11.80;31.90
6556;DHT22;3311;48.32423000;14.29074500;2023-02-28T08:49:37;11.80;31.60
6556;DHT22;3311;48.32423000;14.29074500;2023-02-28T08:52:04;11.80;31.70
6556;DHT22;3311;48.32423000;14.29074500;2023-02-28T08:54:31;11.90;31.80
6556;DHT22;3311;48.32423000;14.29074500;2023-02-28T08:57:00;11.80;31.70
6556;DHT22;3311;48.32423000;14.29074500;2023-02-28T08:59:28;11.80;31.80
6556;DHT22;3311;48.32423000;14.29074500;2023-02-28T09:01:57;11.70;31.70
6556;DHT22;3311;48.32423000;14.29074500;2023-02-28T09:04:24;11.60;31.80
6556;DHT22;3311;48.32423000;14.29074500;2023-02-28T09:06:51;11.60;32.10
6556;DHT22;3311;48.32423000;14.29074500;2023-02-28T09:09:19;11.70;32.10
6556;DHT22;3311;48.32423000;14.29074500;2023-02-28T09:11:46;11.80;32.40
6556;DHT22;3311;48.32423000;14.29074500;2023-02-28T09:14:13;11.80;32.60
6556;DHT22;3311;48.32423000;14.29074500;2023-02-28T09:16:40;11.80;32.10
6556;DHT22;3311;48.32423000;14.29074500;2023-02-28T09:19:12;11.80;32.10
6556;DHT22;3311;48.32423000;14.29074500;2023-02-28T09:21:39;11.70;31.90
6556;DHT22;3311;48.32423000;14.29074500;2023-02-28T09:24:07;11.70;32.30
6556;DHT22;3311;48.32423000;14.29074500;2023-02-28T09:26:34;11.70;32.40
6556;DHT22;3311;48.32423000;14.29074500;2023-02-28T09:29:01;11.80;32.20
6556;DHT22;3311;48.32423000;14.29074500;2023-02-28T09:31:29;11.80;32.10
6556;DHT22;3311;48.32423000;14.29074500;2023-02-28T09:33:57;11.80;32.20
6556;DHT22;3311;48.32423000;14.29074500;2023-02-28T09:36:28;11.70;32.20
6556;DHT22;3311;48.32423000;14.29074500;2023-02-28T09:38:55;11.90;32.30
6556;DHT22;3311;48.32423000;14.29074500;2023-02-28T09:41:25;11.90;32.20
6556;DHT22;3311;48.32423000;14.29074500;2023-02-28T09:43:55;11.90;32.20
6556;DHT22;3311;48.32423000;14.29074500;2023-02-28T09:46:32;11.90;32.50
6556;DHT22;3311;48.32423000;14.29074500;2023-02-28T09:49:02;11.90;32.30
6556;DHT22;3311;48.32423000;14.29074500;2023-02-28T09:51:47;11.90;32.10
6556;DHT22;3311;48.32423000;14.29074500;2023-02-28T09:54:20;11.80;32.30
6556;DHT22;3311;48.32423000;14.29074500;2023-02-28T09:56:51;11.70;32.20
6556;DHT22;3311;48.32423000;14.29074500;2023-02-28T09:59:41;11.70;32.40
6556;DHT22;3311;48.32423000;14.29074500;2023-02-28T10:05:02;11.80;32.70
6556;DHT22;3311;48.32423000;14.29074500;2023-02-28T10:07:46;11.80;32.40
6556;DHT22;3311;48.32423000;14.29074500;2023-02-28T10:10:22;11.90;32.50
6556;DHT22;3311;48.32423000;14.29074500;2023-02-28T10:12:52;11.90;32.50
6556;DHT22;3311;48.32423000;14.29074500;2023-02-28T10:15:24;12.00;32.60
6556;DHT22;3311;48.32423000;14.29074500;2023-02-28T10:17:56;11.90;32.50
6556;DHT22;3311;48.32423000;14.29074500;2023-02-28T10:20:25;11.80;32.40
6556;DHT22;3311;48.32423000;14.29074500;2023-02-28T10:23:07;11.70;32.50
6556;DHT22;3311;48.32423000;14.29074500;2023-02-28T10:25:37;11.80;32.80
6556;DHT22;3311;48.32423000;14.29074500;2023-02-28T10:28:10;11.90;32.80
6556;DHT22;3311;48.32423000;14.29074500;2023-02-28T10:30:40;11.80;32.80
6556;DHT22;3311;48.32423000;14.29074500;2023-02-28T10:33:17;11.90;32.80
6556;DHT22;3311;48.32423000;14.29074500;2023-02-28T10:35:45;12.00;32.90
6556;DHT22;3311;48.32423000;14.29074500;2023-02-28T10:38:18;11.90;32.70
6556;DHT22;3311;48.32423000;14.29074500;2023-02-28T10:40:46;11.90;32.90
6556;DHT22;3311;48.32423000;14.29074500;2023-02-28T10:43:21;11.80;32.70
6556;DHT22;3311;48.32423000;14.29074500;2023-02-28T10:45:58;11.90;33.00
6556;DHT22;3311;48.32423000;14.29074500;2023-02-28T10:48:37;11.90;32.90
6556;DHT22;3311;48.32423000;14.29074500;2023-02-28T10:51:07;11.80;33.00
6556;DHT22;3311;48.32423000;14.29074500;2023-02-28T10:53:44;11.80;33.70
6556;DHT22;3311;48.32423000;14.29074500;2023-02-28T10:56:18;11.90;33.40
6556;DHT22;3311;48.32423000;14.29074500;2023-02-28T10:58:51;11.80;33.00
6556;DHT22;3311;48.32423000;14.29074500;2023-02-28T11:01:20;11.70;33.40
6556;DHT22;3311;48.32423000;14.29074500;2023-02-28T11:03:49;11.60;33.30
6556;DHT22;3311;48.32423000;14.29074500;2023-02-28T11:06:20;11.70;33.50
6556;DHT22;3311;48.32423000;14.29074500;2023-02-28T11:08:52;11.60;33.50
6556;DHT22;3311;48.32423000;14.29074500;2023-02-28T11:11:21;11.70;33.70
6556;DHT22;3311;48.32423000;14.29074500;2023-02-28T11:13:52;11.80;33.70
6556;DHT22;3311;48.32423000;14.29074500;2023-02-28T11:16:21;11.80;33.60
6556;DHT22;3311;48.32423000;14.29074500;2023-02-28T11:18:50;11.80;33.60
6556;DHT22;3311;48.32423000;14.29074500;2023-02-28T11:21:26;11.70;33.60
6556;DHT22;3311;48.32423000;14.29074500;2023-02-28T11:24:01;11.60;33.50
6556;DHT22;3311;48.32423000;14.29074500;2023-02-28T11:26:37;11.60;33.90
6556;DHT22;3311;48.32423000;14.29074500;2023-02-28T11:29:17;11.70;34.20
6556;DHT22;3311;48.32423000;14.29074500;2023-02-28T11:32:05;11.60;33.90
6556;DHT22;3311;48.32423000;14.29074500;2023-02-28T11:34:35;11.80;33.90
6556;DHT22;3311;48.32423000;14.29074500;2023-02-28T11:37:05;11.70;33.70
6556;DHT22;3311;48.32423000;14.29074500;2023-02-28T11:39:34;11.80;33.90
6556;DHT22;3311;48.32423000;14.29074500;2023-02-28T11:45:24;11.90;33.90
6556;DHT22;3311;48.32423000;14.29074500;2023-02-28T11:48:02;11.90;33.80
6556;DHT22;3311;48.32423000;14.29074500;2023-02-28T11:50:41;11.90;34.00
6556;DHT22;3311;48.32423000;14.29074500;2023-02-28T11:53:18;11.80;34.00
6556;DHT22;3311;48.32423000;14.29074500;2023-02-28T11:55:52;11.80;34.00
6556;DHT22;3311;48.32423000;14.29074500;2023-02-28T11:58:30;11.70;34.10
6556;DHT22;3311;48.32423000;14.29074500;2023-02-28T12:01:22;11.70;34.10
6556;DHT22;3311;48.32423000;14.29074500;2023-02-28T12:04:01;11.90;34.20
6556;DHT22;3311;48.32423000;14.29074500;2023-02-28T12:06:33;11.90;34.30
6556;DHT22;3311;48.32423000;14.29074500;2023-02-28T12:09:12;11.90;34.20
6556;DHT22;3311;48.32423000;14.29074500;2023-02-28T12:11:51;11.90;34.30
6556;DHT22;3311;48.32423000;14.29074500;2023-02-28T12:14:39;11.90;34.10
6556;DHT22;3311;48.32423000;14.29074500;2023-02-28T12:17:29;11.80;34.10
6556;DHT22;3311;48.32423000;14.29074500;2023-02-28T12:20:05;11.80;34.60
6556;DHT22;3311;48.32423000;14.29074500;2023-02-28T12:22:42;11.90;34.60
6556;DHT22;3311;48.32423000;14.29074500;2023-02-28T12:28:20;11.90;34.60
6556;DHT22;3311;48.32423000;14.29074500;2023-02-28T12:30:53;12.00;34.50
6556;DHT22;3311;48.32423000;14.29074500;2023-02-28T12:33:24;12.00;34.70
6556;DHT22;3311;48.32423000;14.29074500;2023-02-28T12:35:56;12.00;34.60
6556;DHT22;3311;48.32423000;14.29074500;2023-02-28T12:38:27;12.00;34.60
6556;DHT22;3311;48.32423000;14.29074500;2023-02-28T12:40:57;12.00;34.70
6556;DHT22;3311;48.32423000;14.29074500;2023-02-28T12:43:35;12.00;34.80
6556;DHT22;3311;48.32423000;14.29074500;2023-02-28T12:46:09;12.00;34.70
6556;DHT22;3311;48.32423000;14.29074500;2023-02-28T12:48:40;12.00;34.80
6556;DHT22;3311;48.32423000;14.29074500;2023-02-28T12:51:08;12.00;34.80
6556;DHT22;3311;48.32423000;14.29074500;2023-02-28T12:53:49;12.00;35.00
6556;DHT22;3311;48.32423000;14.29074500;2023-02-28T12:56:26;12.00;35.00
6556;DHT22;3311;48.32423000;14.29074500;2023-02-28T12:59:03;11.90;34.70
6556;DHT22;3311;48.32423000;14.29074500;2023-02-28T13:01:45;11.90;35.00
6556;DHT22;3311;48.32423000;14.29074500;2023-02-28T13:04:29;11.90;35.20
6556;DHT22;3311;48.32423000;14.29074500;2023-02-28T13:10:00;11.80;35.30
6556;DHT22;3311;48.32423000;14.29074500;2023-02-28T13:12:29;11.90;35.30
6556;DHT22;3311;48.32423000;14.29074500;2023-02-28T13:15:07;12.00;35.30
6556;DHT22;3311;48.32423000;14.29074500;2023-02-28T13:17:39;12.00;35.20
6556;DHT22;3311;48.32423000;14.29074500;2023-02-28T13:20:16;11.90;35.20
6556;DHT22;3311;48.32423000;14.29074500;2023-02-28T13:22:45;11.80;35.40
6556;DHT22;3311;48.32423000;14.29074500;2023-02-28T13:31:25;12.00;35.30
6556;DHT22;3311;48.32423000;14.29074500;2023-02-28T13:34:14;12.00;35.40
6556;DHT22;3311;48.32423000;14.29074500;2023-02-28T13:36:41;12.00;35.40
6556;DHT22;3311;48.32423000;14.29074500;2023-02-28T13:39:45;11.90;35.30
6556;DHT22;3311;48.32423000;14.29074500;2023-02-28T13:42:46;11.90;35.60
6556;DHT22;3311;48.32423000;14.29074500;2023-02-28T13:45:24;11.90;35.50
6556;DHT22;3311;48.32423000;14.29074500;2023-02-28T13:47:56;11.90;35.80
6556;DHT22;3311;48.32423000;14.29074500;2023-02-28T13:50:29;12.00;35.60
6556;DHT22;3311;48.32423000;14.29074500;2023-02-28T13:53:17;11.90;35.60
6556;DHT22;3311;48.32423000;14.29074500;2023-02-28T13:55:56;11.90;35.60
6556;DHT22;3311;48.32423000;14.29074500;2023-02-28T13:58:43;11.90;35.70
6556;DHT22;3311;48.32423000;14.29074500;2023-02-28T14:01:49;11.80;35.80
6556;DHT22;3311;48.32423000;14.29074500;2023-02-28T14:04:40;11.80;35.80
6556;DHT22;3311;48.32423000;14.29074500;2023-02-28T14:07:19;11.80;35.90
6556;DHT22;3311;48.32423000;14.29074500;2023-02-28T14:09:55;11.70;35.90
6556;DHT22;3311;48.32423000;14.29074500;2023-02-28T14:12:58;11.80;36.10
6556;DHT22;3311;48.32423000;14.29074500;2023-02-28T14:18:22;11.80;36.10
6556;DHT22;3311;48.32423000;14.29074500;2023-02-28T14:21:01;11.80;36.10
6556;DHT22;3311;48.32423000;14.29074500;2023-02-28T14:32:37;11.90;36.30
6556;DHT22;3311;48.32423000;14.29074500;2023-02-28T14:35:20;11.90;36.20
6556;DHT22;3311;48.32423000;14.29074500;2023-02-28T14:37:51;12.90;37.30
6556;DHT22;3311;48.32423000;14.29074500;2023-02-28T14:40:22;11.60;36.30